Time;durP1;ratioP1;P1;durP2;ratioP2;P2;SDS_P1;SDS_P2;PMS_P1;PMS_P2;Temp;Humidity;BMP_temperature;BMP_pressure;BME280_temperature;BME280_humidity;BME280_pressure;Samples;Min_cycle;Max_cycle;Signal;HPM_P1;HPM_P2
2022/03/16 00:03:10;;;;;;;77.03;45.53;;;;;;;-0.14;92.83;102267.50;10470462;28;20112;-81
2022/03/16 00:08:12;;;;;;;82.10;49.20;;;;;;;-0.23;93.02;102269.03;10465162;28;20063;-81
2022/03/16 00:13:12;;;;;;;74.85;48.97;;;;;;;-0.27;93.14;102274.56;10482479;28;20445;-80
2022/03/16 00:18:13;;;;;;;68.80;42.78;;;;;;;-0.22;93.70;102281.16;10465343;28;20112;-81
2022/03/16 00:23:17;;;;;;;84.05;53.28;;;;;;;0.09;94.07;102275.25;10457663;28;20036;-80
2022/03/16 00:28:17;;;;;;;79.13;46.35;;;;;;;0.09;94.36;102267.53;10481895;28;20024;-81
2022/03/16 00:33:18;;;;;;;80.47;45.92;;;;;;;-0.04;93.79;102257.50;10481304;28;20043;-81
2022/03/16 00:38:18;;;;;;;80.75;47.75;;;;;;;-0.30;93.89;102270.91;10464393;28;20063;-80
2022/03/16 00:43:19;;;;;;;68.47;41.38;;;;;;;-0.38;93.28;102266.56;10480842;28;20056;-80
2022/03/16 00:48:19;;;;;;;67.53;41.70;;;;;;;-0.38;93.98;102265.66;10500431;28;20037;-80
2022/03/16 00:53:20;;;;;;;76.32;44.65;;;;;;;-0.49;93.89;102264.41;10451007;28;20103;-80
2022/03/16 00:58:20;;;;;;;74.80;46.65;;;;;;;-0.51;93.68;102259.09;10461949;28;20071;-80
2022/03/16 01:03:21;;;;;;;73.97;46.60;;;;;;;-0.39;93.79;102267.28;10481796;28;20028;-80
2022/03/16 01:08:21;;;;;;;77.53;44.85;;;;;;;-0.40;93.87;102267.13;10447637;28;20062;-80
2022/03/16 01:13:22;;;;;;;70.65;45.30;;;;;;;-0.49;93.94;102265.34;10460000;28;20037;-80
2022/03/16 01:18:22;;;;;;;104.65;51.63;;;;;;;-0.48;93.93;102259.47;10491145;28;20055;-80
2022/03/16 01:23:23;;;;;;;68.00;44.45;;;;;;;-0.45;93.75;102262.38;10480554;28;20060;-80
2022/03/16 01:28:23;;;;;;;77.95;47.70;;;;;;;-0.33;93.43;102252.56;10479838;28;20064;-80
2022/03/16 01:33:24;;;;;;;111.40;48.15;;;;;;;-0.36;94.18;102254.78;10497842;28;20416;-80
2022/03/16 01:38:24;;;;;;;52.58;36.83;;;;;;;-0.25;93.80;102232.84;10478992;28;20036;-80
2022/03/16 01:43:25;;;;;;;78.55;43.28;;;;;;;-0.26;94.45;102224.94;10463079;28;20043;-80
2022/03/16 01:48:26;;;;;;;79.68;50.33;;;;;;;-0.17;94.71;102228.56;10497265;28;20044;-81
2022/03/16 01:53:27;;;;;;;74.95;42.63;;;;;;;-0.18;94.51;102230.22;10479409;28;20064;-80
2022/03/16 01:58:27;;;;;;;85.57;52.80;;;;;;;-0.18;94.44;102229.31;10469477;28;20064;-80
2022/03/16 02:03:28;;;;;;;86.95;55.78;;;;;;;0.04;94.27;102229.13;10446515;28;20431;-80
2022/03/16 02:08:29;;;;;;;96.50;52.67;;;;;;;0.13;94.81;102232.72;10475775;28;20040;-81
2022/03/16 02:13:32;;;;;;;86.32;51.05;;;;;;;0.13;94.28;102227.59;10462107;28;20097;-80
2022/03/16 02:18:32;;;;;;;95.72;59.33;;;;;;;0.39;94.74;102227.91;10408434;28;20103;-80
2022/03/16 02:23:33;;;;;;;92.72;58.75;;;;;;;0.50;94.81;102220.47;10466754;28;20042;-80
2022/03/16 02:28:33;;;;;;;92.57;56.60;;;;;;;0.58;95.30;102220.53;10465420;28;20503;-80
2022/03/16 02:33:34;;;;;;;102.60;62.75;;;;;;;0.58;95.52;102222.22;10420329;28;20155;-80
2022/03/16 02:38:34;;;;;;;94.85;57.03;;;;;;;0.62;95.10;102219.22;10475113;28;20555;-80
2022/03/16 02:43:35;;;;;;;100.28;59.45;;;;;;;0.48;95.35;102212.53;10478201;28;20044;-80
2022/03/16 02:48:35;;;;;;;89.07;54.97;;;;;;;0.36;95.28;102208.63;10461359;28;20036;-80
2022/03/16 02:53:36;;;;;;;104.63;64.38;;;;;;;0.39;94.60;102201.22;10477261;28;20028;-80
2022/03/16 02:58:36;;;;;;;100.60;61.20;;;;;;;0.31;95.10;102204.63;10477671;28;20064;-80
2022/03/16 03:03:37;;;;;;;103.10;59.90;;;;;;;0.22;95.35;102207.09;10477212;28;20067;-80
2022/03/16 03:08:37;;;;;;;96.15;60.63;;;;;;;0.25;95.24;102213.50;10474689;28;20125;-80
2022/03/16 03:13:38;;;;;;;97.60;58.47;;;;;;;0.21;95.51;102201.03;10464605;28;20111;-80
2022/03/16 03:18:38;;;;;;;100.75;58.70;;;;;;;0.05;95.45;102208.72;10476899;28;20032;-80
2022/03/16 03:23:39;;;;;;;110.28;63.70;;;;;;;0.07;95.42;102216.59;10503139;28;20117;-80
2022/03/16 03:28:39;;;;;;;107.63;65.03;;;;;;;-0.05;94.59;102217.06;10483086;28;20063;-80
2022/03/16 03:33:40;;;;;;;117.00;66.47;;;;;;;-0.13;95.12;102216.97;10467456;28;20460;-80
2022/03/16 03:38:40;;;;;;;101.05;60.25;;;;;;;-0.18;95.15;102217.38;10483769;28;20070;-80
2022/03/16 03:43:41;;;;;;;104.82;63.40;;;;;;;-0.02;94.85;102216.50;10466109;28;20052;-80
2022/03/16 03:48:41;;;;;;;104.90;64.78;;;;;;;-0.04;94.88;102211.16;10484434;28;20132;-80
2022/03/16 03:53:42;;;;;;;126.50;71.97;;;;;;;-0.13;95.37;102205.00;10482825;28;20874;-80
2022/03/16 03:58:42;;;;;;;110.43;61.75;;;;;;;0.04;95.73;102199.16;10502455;28;20075;-80
2022/03/16 04:03:43;;;;;;;129.55;74.68;;;;;;;0.07;95.11;102204.66;10482588;28;20029;-80
2022/03/16 04:08:44;;;;;;;127.50;70.30;;;;;;;0.00;95.72;102215.03;10482003;28;20036;-80
2022/03/16 04:13:45;;;;;;;114.07;67.43;;;;;;;-0.23;95.96;102205.63;10496194;28;20060;-80
2022/03/16 04:18:45;;;;;;;115.15;65.95;;;;;;;0.06;95.96;102205.41;10454607;28;20029;-80
2022/03/16 04:23:46;;;;;;;136.32;76.45;;;;;;;0.41;95.94;102204.88;10443836;28;20078;-80
2022/03/16 04:28:46;;;;;;;128.52;77.32;;;;;;;0.46;96.06;102203.72;10481003;28;20036;-80
2022/03/16 04:33:47;;;;;;;136.25;77.60;;;;;;;0.29;96.41;102210.50;10464898;28;20067;-80
2022/03/16 04:38:50;;;;;;;121.40;71.20;;;;;;;0.21;96.00;102208.75;10481028;28;20025;-80
2022/03/16 04:43:50;;;;;;;121.40;71.57;;;;;;;0.30;95.61;102196.00;10481986;28;20054;-80
2022/03/16 04:48:51;;;;;;;119.55;72.05;;;;;;;0.20;95.90;102203.44;10482944;28;20119;-80
2022/03/16 04:53:51;;;;;;;129.00;72.97;;;;;;;0.06;95.32;102195.09;10479939;28;20034;-80
2022/03/16 04:58:52;;;;;;;120.22;71.57;;;;;;;0.01;95.75;102197.91;10463354;28;20040;-80
2022/03/16 05:03:52;;;;;;;129.38;69.25;;;;;;;0.19;95.92;102209.34;10463112;28;20021;-80
2022/03/16 05:08:53;;;;;;;181.25;77.32;;;;;;;0.32;96.33;102203.88;10464033;28;20036;-80
2022/03/16 05:13:53;;;;;;;120.28;68.90;;;;;;;0.27;95.79;102196.56;10479513;28;20072;-80
2022/03/16 05:18:54;;;;;;;126.60;73.63;;;;;;;0.54;96.36;102186.56;10457367;28;20131;-80
2022/03/16 05:23:54;;;;;;;128.93;68.32;;;;;;;0.48;96.13;102181.63;10468233;28;20131;-80
2022/03/16 05:28:56;;;;;;;113.68;67.90;;;;;;;0.47;96.35;102194.34;10468391;28;20035;-78
2022/03/16 05:33:57;;;;;;;109.55;64.75;;;;;;;0.53;95.82;102190.78;10505569;28;20076;-81
2022/03/16 05:38:57;;;;;;;122.07;67.78;;;;;;;0.83;96.10;102176.81;10454323;28;20065;-79
2022/03/16 05:43:58;;;;;;;132.35;74.07;;;;;;;1.04;96.24;102190.19;10444034;28;20524;-77
2022/03/16 05:48:58;;;;;;;115.82;67.72;;;;;;;0.93;96.58;102198.44;10471266;28;20083;-77
2022/03/16 05:53:59;;;;;;;129.00;68.30;;;;;;;0.97;96.54;102200.59;10493222;28;20546;-79
2022/03/16 05:58:59;;;;;;;123.53;67.18;;;;;;;0.98;96.28;102200.78;10477275;28;20125;-78
2022/03/16 06:04:00;;;;;;;150.38;75.47;;;;;;;0.96;96.88;102197.13;10476092;28;20056;-76
2022/03/16 06:09:00;;;;;;;111.80;65.63;;;;;;;1.20;96.36;102207.28;10492691;28;20059;-79
2022/03/16 06:14:01;;;;;;;107.72;58.65;;;;;;;1.37;96.54;102207.44;10447864;28;20051;-79
2022/03/16 06:19:01;;;;;;;117.13;64.07;;;;;;;1.49;96.50;102213.00;10493994;28;20055;-80
2022/03/16 06:24:02;;;;;;;130.77;71.07;;;;;;;1.71;96.98;102205.81;10476065;28;20071;-78
2022/03/16 06:29:02;;;;;;;125.07;65.00;;;;;;;1.92;96.78;102182.09;10492294;28;20361;-79
2022/03/16 06:34:03;;;;;;;100.43;60.55;;;;;;;2.16;96.69;102189.81;10493246;28;20047;-78
2022/03/16 06:39:03;;;;;;;101.95;59.03;;;;;;;2.30;96.51;102183.44;10470657;28;20040;-78
2022/03/16 06:44:04;;;;;;;89.55;52.75;;;;;;;2.51;96.59;102181.22;10474687;28;20068;-80
2022/03/16 06:49:05;;;;;;;85.13;47.97;;;;;;;2.76;96.34;102179.44;10476243;28;20047;-78
2022/03/16 06:54:09;;;;;;;78.68;44.97;;;;;;;3.15;95.43;102185.84;10463152;28;20054;-76
2022/03/16 06:59:11;;;;;;;63.47;37.55;;;;;;;3.39;93.69;102178.66;10475055;28;20040;-78
2022/03/16 07:04:12;;;;;;;62.13;35.55;;;;;;;4.16;92.74;102169.59;10490901;28;20059;-78
2022/03/16 07:09:12;;;;;;;40.15;23.98;;;;;;;5.18;87.37;102177.13;10450519;28;20060;-80
2022/03/16 07:14:31;;;;;;;30.23;20.50;;;;;;;5.27;82.58;102167.56;10465591;28;20107;-79
2022/03/16 07:19:32;;;;;;;28.90;16.90;;;;;;;6.22;78.37;102168.03;10500293;28;20056;-81
2022/03/16 07:24:32;;;;;;;28.00;18.10;;;;;;;7.66;74.15;102163.38;10481370;28;20147;-82
2022/03/16 07:29:33;;;;;;;24.05;15.52;;;;;;;9.25;71.50;102153.78;10482462;28;20169;-83
2022/03/16 07:34:33;;;;;;;24.23;15.90;;;;;;;9.41;64.68;102145.38;10483629;28;20086;-83
2022/03/16 07:39:34;;;;;;;23.92;15.40;;;;;;;9.57;68.53;102157.81;10481945;28;20067;-83
2022/03/16 07:44:34;;;;;;;19.35;13.40;;;;;;;10.25;63.92;102162.63;10501077;28;20135;-81
2022/03/16 07:49:35;;;;;;;27.63;15.52;;;;;;;9.76;64.20;102154.84;10501031;28;20115;-82
2022/03/16 07:54:36;;;;;;;24.27;15.23;;;;;;;9.75;64.48;102155.66;10480930;28;20488;-81
2022/03/16 07:59:36;;;;;;;27.73;15.60;;;;;;;9.75;63.67;102149.50;10493427;28;20074;-81
2022/03/16 08:04:36;;;;;;;23.27;14.05;;;;;;;9.14;63.56;102150.38;10499663;28;20071;-81
2022/03/16 08:09:37;;;;;;;19.98;14.02;;;;;;;8.37;65.76;102142.84;10482073;28;20514;-80
2022/03/16 08:14:37;;;;;;;27.48;16.25;;;;;;;7.70;69.02;102148.13;10499815;28;20054;-85
2022/03/16 08:19:38;;;;;;;25.88;16.15;;;;;;;7.64;69.07;102158.03;10496678;28;20051;-83
2022/03/16 08:24:38;;;;;;;25.27;16.60;;;;;;;7.66;69.71;102152.94;10449208;28;20138;-82
2022/03/16 08:29:39;;;;;;;25.83;15.27;;;;;;;7.83;68.69;102147.38;10464138;28;20111;-83
2022/03/16 08:34:39;;;;;;;27.02;17.33;;;;;;;8.05;69.24;102142.19;10447753;28;20146;-80
2022/03/16 08:39:41;;;;;;;22.48;15.43;;;;;;;8.07;68.97;102144.88;10498489;28;20030;-81
2022/03/16 08:44:42;;;;;;;19.30;13.52;;;;;;;8.33;67.80;102151.22;10462327;28;20052;-80
2022/03/16 08:49:44;;;;;;;26.03;15.50;;;;;;;8.72;67.38;102156.81;10479805;28;20495;-81
2022/03/16 08:54:44;;;;;;;21.23;14.10;;;;;;;8.65;67.18;102147.59;10496792;28;20043;-81
2022/03/16 08:59:45;;;;;;;19.80;14.32;;;;;;;8.99;67.11;102137.09;10478720;28;20031;-81
2022/03/16 09:04:45;;;;;;;20.33;13.30;;;;;;;9.21;64.80;102129.16;10497810;28;20496;-82
2022/03/16 09:09:46;;;;;;;20.90;13.80;;;;;;;9.49;64.62;102149.44;10462350;28;20902;-84
2022/03/16 09:14:46;;;;;;;19.85;12.90;;;;;;;9.79;63.34;102147.22;10480462;28;20072;-85
2022/03/16 09:19:48;;;;;;;19.35;12.57;;;;;;;10.39;62.39;102145.31;10495996;28;20071;-84
2022/03/16 09:24:49;;;;;;;13.98;10.25;;;;;;;11.39;58.53;102142.28;10495521;28;20384;-83
2022/03/16 09:29:49;;;;;;;15.25;11.07;;;;;;;12.48;55.31;102135.91;10495887;28;20060;-83
2022/03/16 09:34:50;;;;;;;16.02;10.90;;;;;;;13.74;52.55;102125.56;10460676;28;20029;-82
2022/03/16 09:39:51;;;;;;;14.07;11.40;;;;;;;15.22;48.77;102130.53;10495337;28;20484;-83
2022/03/16 09:44:53;;;;;;;16.88;10.50;;;;;;;15.98;47.00;102126.19;10477694;28;20516;-84
2022/03/16 09:49:54;;;;;;;14.70;10.20;;;;;;;15.16;46.74;102117.94;10460950;28;20500;-81
2022/03/16 09:54:54;;;;;;;15.30;9.75;;;;;;;15.06;47.16;102124.50;10462470;28;20047;-82
2022/03/16 09:59:55;;;;;;;12.70;9.60;;;;;;;15.42;46.50;102139.41;10495600;28;20048;-82
2022/03/16 10:04:56;;;;;;;15.38;10.10;;;;;;;16.17;46.47;102132.28;10479671;28;20056;-82
2022/03/16 10:15:18;;;;;;;14.60;10.20;;;;;;;16.56;44.23;102113.72;10479861;28;20365;-82
2022/03/16 10:20:32;;;;;;;14.85;10.02;;;;;;;16.10;45.45;102102.06;10444631;28;20507;-83
2022/03/16 10:25:35;;;;;;;15.20;11.10;;;;;;;15.85;46.48;102111.50;10477870;28;20067;-83
2022/03/16 10:30:40;;;;;;;16.42;9.88;;;;;;;16.47;43.61;102108.06;10476594;28;20109;-80
2022/03/16 10:35:56;;;;;;;11.95;9.18;;;;;;;16.73;44.13;102115.34;10477231;28;20023;-82
2022/03/16 10:46:48;;;;;;;13.67;9.10;;;;;;;19.15;40.72;102098.66;10381650;28;20390;-81
2022/03/16 10:52:05;;;;;;;13.40;9.40;;;;;;;18.17;41.23;102088.31;10395247;28;20403;-82
2022/03/16 10:57:10;;;;;;;13.43;9.43;;;;;;;17.42;42.47;102089.03;10394765;28;20029;-82
2022/03/16 11:02:14;;;;;;;16.27;10.70;;;;;;;17.94;42.24;102068.00;10410285;28;20068;-82
2022/03/16 11:07:14;;;;;;;17.98;10.18;;;;;;;17.31;42.63;102089.50;10394495;28;20804;-82
2022/03/16 11:17:37;;;;;;;12.18;10.18;;;;;;;16.14;46.77;102094.34;10409021;28;20036;-82
2022/03/16 11:28:03;;;;;;;13.05;8.90;;;;;;;15.86;46.03;102073.69;10412669;28;20068;-82
2022/03/16 11:33:05;;;;;;;14.35;9.13;;;;;;;15.15;48.26;102086.22;10393617;28;20057;-82
2022/03/16 11:38:11;;;;;;;;;;;;;;;15.04;47.75;102081.34;10409362;28;20022;-82
2022/03/16 11:43:12;;;;;;;11.85;8.70;;;;;;;16.83;44.83;102081.38;10415988;28;19924;-82
2022/03/16 11:48:31;;;;;;;14.43;9.65;;;;;;;16.74;44.56;102072.22;10500309;28;20053;-82
2022/03/16 11:53:47;;;;;;;14.70;9.38;;;;;;;16.46;45.68;102070.19;10492494;28;20037;-84
2022/03/16 11:58:48;;;;;;;13.98;9.15;;;;;;;16.23;45.57;102071.81;10499963;28;20391;-82
2022/03/16 12:04:35;;;;;;;14.27;9.15;;;;;;;16.71;46.13;102058.88;10440500;28;20052;-82
2022/03/16 12:09:31;;;;;;;13.77;9.05;;;;;;;15.85;46.75;102051.66;10430208;28;20408;-83
2022/03/16 12:14:32;;;;;;;13.43;9.07;;;;;;;14.82;50.07;102071.47;10458561;28;20473;-83
2022/03/16 12:19:33;;;;;;;13.70;8.90;;;;;;;14.14;51.11;102063.66;10458179;28;20480;-82
2022/03/16 12:29:54;;;;;;;13.45;9.65;;;;;;;13.59;53.22;102051.06;10443341;28;20115;-82
2022/03/16 12:34:57;;;;;;;11.47;8.40;;;;;;;13.35;53.52;102041.91;10439882;28;20409;-82
2022/03/16 12:39:57;;;;;;;;;;;;;;;13.75;52.37;102030.03;10439178;28;20040;-82
2022/03/16 12:45:12;;;;;;;10.95;8.75;;;;;;;13.58;53.19;102025.59;10487138;28;19916;-83
2022/03/16 12:50:19;;;;;;;12.55;8.73;;;;;;;13.61;53.22;102016.16;10524020;28;20032;-82
2022/03/16 12:55:20;;;;;;;13.07;8.98;;;;;;;13.58;53.56;102012.44;10540076;28;20032;-82
2022/03/16 13:00:31;;;;;;;13.45;9.60;;;;;;;13.69;53.35;102002.50;10541792;28;20024;-83
2022/03/16 13:05:35;;;;;;;12.27;7.33;;;;;;;13.72;53.29;102008.81;10521130;28;20055;-82
2022/03/16 13:11:14;;;;;;;21.02;9.63;;;;;;;13.74;53.50;101995.78;10539331;28;20035;-83
2022/03/16 13:16:00;;;;;;;14.52;8.10;;;;;;;13.72;52.88;101987.78;10538493;28;20035;-80
2022/03/16 13:21:00;;;;;;;10.07;8.05;;;;;;;13.67;53.76;101994.53;10531946;28;20024;-81
2022/03/16 13:26:10;;;;;;;12.25;8.25;;;;;;;13.77;53.33;102001.19;10468395;28;20098;-80
2022/03/16 13:31:10;;;;;;;13.02;9.13;;;;;;;13.74;53.74;101988.75;10469968;28;20020;-80
2022/03/16 13:36:11;;;;;;;14.35;8.60;;;;;;;13.75;53.33;101984.41;10468310;28;20060;-80
2022/03/16 13:41:13;;;;;;;14.93;8.17;;;;;;;13.63;52.82;101979.41;10453117;28;20032;-80
2022/03/16 13:46:15;;;;;;;11.77;8.43;;;;;;;13.36;53.74;101974.44;10485407;28;20069;-81
2022/03/16 13:51:15;;;;;;;13.88;7.60;;;;;;;13.54;53.62;101978.91;10450707;28;20044;-79
2022/03/16 13:56:18;;;;;;;12.57;8.38;;;;;;;13.49;52.94;101969.06;10445057;28;20052;-80
2022/03/16 14:01:26;;;;;;;12.50;8.05;;;;;;;13.62;53.06;101964.44;10460934;28;20514;-80
2022/03/16 14:06:35;;;;;;;10.90;7.82;;;;;;;13.59;52.90;101946.78;10446819;28;20071;-79
2022/03/16 14:11:36;;;;;;;11.00;7.43;;;;;;;13.40;53.13;101939.59;10471028;28;20036;-81
2022/03/16 14:16:38;;;;;;;10.80;8.30;;;;;;;13.11;54.11;101920.53;10490113;28;20040;-80
2022/03/16 14:21:39;;;;;;;;;;;;;;;12.92;54.94;101916.03;10494275;28;20025;-79
2022/03/16 14:26:40;;;;;;;11.47;7.50;;;;;;;12.76;55.21;101909.94;10460981;28;20778;-79
2022/03/16 14:31:43;;;;;;;8.88;6.45;;;;;;;12.76;54.59;101899.41;10479241;28;20646;-79
2022/03/16 14:36:43;;;;;;;10.10;6.72;;;;;;;12.80;54.96;101894.34;10492807;28;20021;-78
2022/03/16 14:41:44;;;;;;;13.52;7.03;;;;;;;12.68;55.85;101882.31;10464125;28;20514;-79
2022/03/16 14:46:45;;;;;;;9.63;6.25;;;;;;;12.58;55.48;101870.41;10494558;28;20045;-78
2022/03/16 14:51:45;;;;;;;11.32;7.05;;;;;;;12.39;56.52;101880.69;10457818;28;20374;-79
2022/03/16 14:56:46;;;;;;;9.95;6.20;;;;;;;12.27;55.55;101892.31;10452323;28;20533;-78
2022/03/16 15:01:46;;;;;;;11.02;7.05;;;;;;;12.32;55.61;101884.69;10473416;28;20077;-78
2022/03/16 15:06:47;;;;;;;9.75;7.30;;;;;;;12.21;56.08;101854.31;10477992;28;20024;-79
2022/03/16 15:11:47;;;;;;;9.63;6.45;;;;;;;12.13;55.66;101856.50;10454724;28;20082;-78
2022/03/16 15:16:48;;;;;;;10.07;6.95;;;;;;;12.12;56.14;101862.56;10470817;28;20067;-78
2022/03/16 15:21:48;;;;;;;10.65;7.07;;;;;;;12.01;56.46;101859.31;10463183;28;20103;-79
2022/03/16 15:26:49;;;;;;;13.32;6.90;;;;;;;11.87;57.62;101856.78;10487871;28;20388;-78
2022/03/16 15:31:51;;;;;;;13.90;7.72;;;;;;;11.84;57.75;101847.81;10462909;28;20124;-78
2022/03/16 15:36:51;;;;;;;13.40;7.57;;;;;;;11.75;57.72;101858.69;10459194;28;20017;-79
2022/03/16 15:47:11;;;;;;;12.40;6.45;;;;;;;11.51;58.60;101868.59;10478705;28;20048;-79
2022/03/16 15:52:11;;;;;;;11.40;7.55;;;;;;;11.42;58.53;101863.72;10449158;28;20037;-78
2022/03/16 15:57:12;;;;;;;11.80;6.68;;;;;;;11.37;58.69;101852.94;10466789;28;20495;-78
2022/03/16 16:02:12;;;;;;;10.80;6.40;;;;;;;11.40;58.69;101863.63;10467006;28;20479;-78
2022/03/16 16:07:17;;;;;;;9.30;5.90;;;;;;;11.35;59.31;101858.94;10479302;28;20119;-77
2022/03/16 16:12:17;;;;;;;7.97;4.55;;;;;;;11.31;58.93;101870.94;10500741;28;20037;-78
2022/03/16 16:17:18;;;;;;;11.70;6.75;;;;;;;11.27;59.26;101864.59;10497577;28;20060;-78
2022/03/16 16:22:20;;;;;;;10.43;6.65;;;;;;;11.23;59.23;101865.22;10462865;28;20476;-78
2022/03/16 16:27:21;;;;;;;;;;;;;;;11.19;58.20;101838.75;10497621;28;20452;-79
2022/03/16 16:32:21;;;;;;;10.52;6.22;;;;;;;11.12;58.73;101837.47;10487060;28;19943;-80
2022/03/16 16:37:25;;;;;;;11.40;7.10;;;;;;;10.97;59.01;101830.50;10502101;28;20181;-80
2022/03/16 16:43:12;;;;;;;9.05;5.28;;;;;;;10.90;59.68;101850.94;10481031;28;20033;-80
2022/03/16 16:47:46;;;;;;;13.75;6.03;;;;;;;10.87;60.18;101867.41;10452978;28;20059;-79
2022/03/16 16:52:47;;;;;;;10.10;6.53;;;;;;;10.79;60.10;101864.28;10463842;28;20037;-82
2022/03/16 16:57:48;;;;;;;9.57;5.30;;;;;;;10.68;59.99;101850.53;10464227;28;20024;-80
2022/03/16 17:02:52;;;;;;;12.07;6.23;;;;;;;10.62;60.42;101851.84;10463291;28;20033;-79
2022/03/16 17:07:57;;;;;;;10.10;6.30;;;;;;;10.59;60.23;101842.09;10443563;28;20111;-79
2022/03/16 17:12:58;;;;;;;10.70;6.50;;;;;;;10.47;60.70;101839.59;10446610;28;20024;-79
2022/03/16 17:17:59;;;;;;;8.85;5.35;;;;;;;10.33;60.93;101812.53;10459598;28;20029;-79
2022/03/16 17:23:06;;;;;;;13.25;7.00;;;;;;;10.19;61.81;101826.44;10461470;28;20024;-78
2022/03/16 17:28:12;;;;;;;9.65;6.60;;;;;;;10.12;61.66;101833.88;10463900;28;20035;-79
2022/03/16 17:33:14;;;;;;;14.35;8.98;;;;;;;10.07;61.95;101839.59;10469667;28;20040;-77
2022/03/16 17:38:16;;;;;;;13.52;7.30;;;;;;;9.96;62.68;101824.13;10443589;28;20028;-77
2022/03/16 17:48:35;;;;;;;14.45;8.88;;;;;;;9.96;62.59;101791.84;10490613;28;20309;-78
2022/03/16 17:53:36;;;;;;;10.93;7.03;;;;;;;9.88;62.79;101799.16;10514828;28;20032;-79
2022/03/16 17:58:37;;;;;;;13.48;8.05;;;;;;;9.87;63.09;101797.38;10502075;28;20102;-78
2022/03/16 18:03:44;;;;;;;12.10;7.97;;;;;;;9.84;63.14;101789.31;10463501;28;20119;-78
2022/03/16 18:08:46;;;;;;;14.38;8.60;;;;;;;9.77;63.65;101808.94;10462705;28;20033;-78
2022/03/16 18:13:46;;;;;;;;;;;;;;;9.78;63.88;101808.13;10497065;28;20031;-79
2022/03/16 18:18:47;;;;;;;12.83;8.50;;;;;;;9.75;63.74;101807.00;10475612;28;20253;-78
2022/03/16 18:23:50;;;;;;;15.80;10.05;;;;;;;9.78;63.77;101805.53;10469877;28;20299;-78
2022/03/16 18:28:50;;;;;;;15.45;10.00;;;;;;;9.70;64.32;101812.84;10500542;28;20032;-79
2022/03/16 18:33:51;;;;;;;13.23;9.65;;;;;;;9.74;64.44;101816.59;10475541;28;20037;-80
2022/03/16 18:38:51;;;;;;;13.93;9.05;;;;;;;9.68;64.57;101821.41;10493922;28;20054;-85
2022/03/16 18:43:53;;;;;;;14.63;9.63;;;;;;;9.66;64.84;101812.56;10475961;28;20434;-82
2022/03/16 18:48:54;;;;;;;16.38;9.35;;;;;;;9.67;64.70;101819.59;10452875;28;20032;-80
2022/03/16 18:53:56;;;;;;;19.55;9.70;;;;;;;9.64;64.87;101809.81;10501601;28;20071;-85
2022/03/16 18:58:57;;;;;;;15.20;10.32;;;;;;;9.60;65.11;101807.81;10461083;28;20439;-81
2022/03/16 19:04:00;;;;;;;15.00;10.27;;;;;;;9.55;65.60;101809.22;10464249;28;20496;-84
2022/03/16 19:09:01;;;;;;;15.63;10.00;;;;;;;9.52;65.54;101814.22;10453462;28;20032;-81
2022/03/16 19:14:02;;;;;;;16.42;10.77;;;;;;;9.51;65.61;101789.81;10471697;28;20053;-82
2022/03/16 19:19:04;;;;;;;19.65;11.93;;;;;;;9.46;65.75;101788.59;10489914;28;20094;-84
2022/03/16 19:24:05;;;;;;;14.18;10.00;;;;;;;9.47;66.06;101790.41;10466756;28;20104;-82
2022/03/16 19:29:05;;;;;;;17.30;11.90;;;;;;;9.43;66.31;101783.19;10499211;28;20037;-81
2022/03/16 19:34:07;;;;;;;20.80;11.45;;;;;;;9.51;66.07;101778.44;10502902;28;20543;-85
2022/03/16 19:39:07;;;;;;;17.27;12.90;;;;;;;9.48;66.10;101775.63;10453827;28;20485;-83
2022/03/16 19:44:10;;;;;;;16.40;12.07;;;;;;;9.39;66.49;101781.16;10468407;28;20045;-82
2022/03/16 19:49:12;;;;;;;;;;;;;;;9.32;66.92;101785.06;10473056;28;20053;-81
2022/03/16 19:54:13;;;;;;;28.63;12.52;;;;;;;9.35;66.84;101790.47;10465126;28;19913;-82
2022/03/16 19:59:14;;;;;;;17.30;11.18;;;;;;;9.34;66.96;101786.06;10494773;28;20486;-83
2022/03/16 20:04:20;;;;;;;18.90;12.80;;;;;;;9.41;66.73;101787.41;10463796;28;20035;-85
2022/03/16 20:09:21;;;;;;;17.92;13.30;;;;;;;9.48;66.42;101793.91;10467281;28;20094;-85
2022/03/16 20:14:24;;;;;;;19.70;12.18;;;;;;;9.52;66.66;101783.78;10446608;28;20024;-83
2022/03/16 20:19:24;;;;;;;19.30;13.15;;;;;;;9.59;66.31;101779.84;10466176;28;20029;-84
2022/03/16 20:24:26;;;;;;;17.05;12.15;;;;;;;9.55;66.59;101783.06;10478099;28;20437;-83
2022/03/16 20:29:26;;;;;;;18.57;13.23;;;;;;;9.65;66.21;101784.59;10482736;28;20056;-83
2022/03/16 20:34:27;;;;;;;20.60;11.98;;;;;;;9.63;66.55;101791.44;10460520;28;20053;-81
2022/03/16 20:39:27;;;;;;;21.02;13.35;;;;;;;9.60;66.30;101786.91;10476842;28;20041;-83
2022/03/16 20:44:29;;;;;;;17.52;12.35;;;;;;;9.62;66.65;101793.13;10463094;28;20051;-82
2022/03/16 20:49:30;;;;;;;19.57;13.20;;;;;;;9.67;66.46;101772.53;10469650;28;20044;-82
2022/03/16 20:54:34;;;;;;;20.23;13.10;;;;;;;9.66;66.47;101795.16;10453206;28;20021;-81
2022/03/16 21:04:56;;;;;;;24.65;14.38;;;;;;;9.64;66.84;101790.63;10484309;28;20530;-83
2022/03/16 21:10:00;;;;;;;19.67;14.10;;;;;;;9.66;66.85;101784.69;10442787;28;20025;-84
2022/03/16 21:15:08;;;;;;;20.40;13.85;;;;;;;9.67;66.70;101788.22;10452339;28;20492;-83
2022/03/16 21:20:10;;;;;;;23.45;13.65;;;;;;;9.65;66.95;101795.94;10477513;28;20025;-82
2022/03/16 21:25:11;;;;;;;21.10;16.53;;;;;;;9.69;66.57;101790.13;10480009;28;20061;-82
2022/03/16 21:30:15;;;;;;;20.70;14.40;;;;;;;9.70;66.75;101796.28;10474807;28;20086;-83
2022/03/16 21:35:16;;;;;;;25.02;15.88;;;;;;;9.76;66.78;101790.53;10464299;28;20432;-80
2022/03/16 21:45:38;;;;;;;26.90;15.45;;;;;;;9.79;66.68;101798.56;10496675;28;20045;-81
2022/03/16 21:56:01;;;;;;;23.70;15.88;;;;;;;9.79;67.06;101799.50;10483252;28;20052;-80
2022/03/16 22:01:05;;;;;;;23.90;15.13;;;;;;;9.75;67.08;101801.78;10495166;28;20060;-80
2022/03/16 22:06:10;;;;;;;21.73;16.55;;;;;;;9.74;67.38;101805.19;10496534;28;20050;-80
2022/03/16 22:11:10;;;;;;;26.15;16.25;;;;;;;9.70;67.50;101791.03;10461672;28;20024;-80
2022/03/16 22:16:11;;;;;;;26.40;17.38;;;;;;;9.68;67.56;101793.53;10478202;28;20086;-80
2022/03/16 22:21:21;;;;;;;26.00;17.25;;;;;;;9.73;67.61;101801.69;10494977;28;20036;-79
2022/03/16 22:26:22;;;;;;;25.95;17.17;;;;;;;9.69;67.69;101790.13;10478576;28;20024;-80
2022/03/16 22:31:22;;;;;;;24.98;15.05;;;;;;;9.67;67.45;101793.47;10460278;28;20071;-79
2022/03/16 22:36:25;;;;;;;21.42;15.23;;;;;;;9.66;67.89;101800.38;10461362;28;20472;-80
2022/03/16 22:41:25;;;;;;;27.33;17.50;;;;;;;9.72;67.80;101797.28;10460181;28;20044;-80
2022/03/16 22:46:26;;;;;;;27.90;17.42;;;;;;;9.67;67.87;101796.06;10461287;28;20036;-80
2022/03/16 22:51:26;;;;;;;26.15;16.92;;;;;;;9.66;67.99;101789.91;10496492;28;20366;-80
2022/03/16 22:56:27;;;;;;;26.48;17.85;;;;;;;9.62;68.46;101787.91;10494978;28;20491;-79
2022/03/16 23:01:27;;;;;;;27.83;20.60;;;;;;;9.69;68.01;101791.84;10460034;28;20033;-79
2022/03/16 23:06:28;;;;;;;23.60;16.38;;;;;;;9.63;68.12;101794.06;10476158;28;20077;-80
2022/03/16 23:11:28;;;;;;;28.38;16.02;;;;;;;9.58;68.24;101788.50;10476780;28;20142;-80
2022/03/16 23:16:29;;;;;;;22.83;16.75;;;;;;;9.55;68.29;101777.84;10476527;28;20546;-80
2022/03/16 23:21:29;;;;;;;25.10;16.10;;;;;;;9.47;68.97;101779.97;10475453;28;20067;-80
2022/03/16 23:26:30;;;;;;;24.55;16.83;;;;;;;9.43;68.99;101792.72;10495596;28;20433;-80
2022/03/16 23:31:30;;;;;;;24.92;18.67;;;;;;;9.39;69.12;101792.50;10492897;28;20068;-80
2022/03/16 23:36:31;;;;;;;25.15;16.42;;;;;;;9.29;69.28;101800.53;10475873;28;20036;-80
2022/03/16 23:41:31;;;;;;;25.55;16.05;;;;;;;9.24;69.42;101804.53;10484174;28;20450;-80
2022/03/16 23:46:33;;;;;;;23.15;15.88;;;;;;;9.10;70.21;101803.59;10484133;28;20056;-80